Погода Боузана 2 недели

Тахуа, Нигер

23 февраля-06 марта
  • 23февраля
    Сегодня
    +19°
    +35°
    Ясно и безоблачно
    ВремяПогодаТемператураВлажностьДавлениеВетер, м/сВероятность осадков
    01:00Ясно и безоблачно+22°C34 %723 мм2.7 м/с0 %
    04:00Ясно и безоблачно+20°C42 %722 мм2.5 м/с0 %
    07:00Ясно и безоблачно+18°C47 %723 мм3.0 м/с0 %
    10:00Ясно и безоблачно+25°C30 %725 мм5.0 м/с0 %
    13:00Ясно и безоблачно+32°C21 %724 мм5.6 м/с0 %
    16:00Ясно и безоблачно+34°C15 %722 мм4.0 м/с0 %
    19:00Ясно и безоблачно+30°C19 %723 мм2.4 м/с0 %
    22:00Ясно и безоблачно+26°C25 %724 мм2.3 м/с0 %
  • 24февраля
    Суббота
    +20°
    +36°
    Ясно и безоблачно
    ВремяПогодаТемператураВлажностьДавлениеВетер, м/сВероятность осадков
    01:00Ясно и безоблачно+24°C23 %724 мм3.8 м/с0 %
    04:00Ясно и безоблачно+21°C32 %723 мм3.2 м/с0 %
    07:00Ясно и безоблачно+19°C46 %724 мм3.2 м/с0 %
    10:00Ясно и безоблачно+27°C40 %726 мм4.7 м/с0 %
    13:00Ясно и безоблачно+33°C22 %725 мм4.8 м/с0 %
    16:00Практически безоблачно+35°C15 %723 мм2.1 м/с0 %
    19:00Ясно и безоблачно+32°C17 %723 мм2.1 м/с0 %
    22:00Ясно и безоблачно+28°C21 %724 мм2.9 м/с0 %
  • 25февраля
    Воскресенье
    +18°
    +36°
    Ясно и безоблачно
    ВремяПогодаТемператураВлажностьДавлениеВетер, м/сВероятность осадков
    01:00Ясно и безоблачно+25°C24 %724 мм2.6 м/с0 %
    04:00Ясно и безоблачно+21°C25 %724 мм2.4 м/с0 %
    07:00Ясно и безоблачно+20°C21 %725 мм2.8 м/с0 %
    10:00Ясно и безоблачно+28°C13 %727 мм4.3 м/с0 %
    13:00Ясно и безоблачно+34°C9 %725 мм4.5 м/с0 %
    16:00Ясно и безоблачно+36°C8 %723 мм3.8 м/с0 %
    19:00Ясно и безоблачно+32°C11 %723 мм2.5 м/с0 %
    22:00Ясно и безоблачно+27°C13 %724 мм2.9 м/с0 %
  • 26февраля
    Понедельник
    +20°
    +37°
    Ясно и безоблачно
    ВремяПогодаТемператураВлажностьДавлениеВетер, м/сВероятность осадков
    01:00Ясно и безоблачно+24°C13 %724 мм3.1 м/с0 %
    04:00Ясно и безоблачно+21°C12 %722 мм2.7 м/с0 %
    07:00Ясно и безоблачно+19°C13 %723 мм2.8 м/с0 %
    10:00Ясно и безоблачно+28°C8 %726 мм3.5 м/с0 %
    13:00Ясно и безоблачно+35°C5 %724 мм4.4 м/с0 %
    16:00Ясно и безоблачно+36°C5 %722 мм3.6 м/с0 %
    19:00Ясно и безоблачно+32°C7 %722 мм2.3 м/с0 %
    22:00Ясно и безоблачно+27°C8 %723 мм2.4 м/с0 %
Мы используем cookies
Соглашаюсь